Time;durP1;ratioP1;P1;durP2;ratioP2;P2;SDS_P1;SDS_P2;PMS_P1;PMS_P2;Temp;Humidity;BMP_temperature;BMP_pressure;BME280_temperature;BME280_humidity;BME280_pressure;Samples;Min_cycle;Max_cycle;Signal;HPM_P1;HPM_P2
2023/07/31 02:02:03;;;;;;;2.50;2.30;;;;;;;;;;4476015;27;19962;-82
2023/07/31 02:04:30;;;;;;;3.03;2.22;;;;;;;;;;4317778;33;20469;-80
2023/07/31 02:06:56;;;;;;;6.95;2.20;;;;;;;;;;4326067;33;20044;-81
2023/07/31 02:09:22;;;;;;;2.30;2.05;;;;;;;;;;4314199;33;20246;-81
2023/07/31 02:11:48;;;;;;;3.20;2.15;;;;;;;;;;4294529;33;20120;-83
2023/07/31 02:14:15;;;;;;;4.68;2.85;;;;;;;;;;4294822;33;20049;-81
2023/07/31 02:16:42;;;;;;;4.47;2.25;;;;;;;;;;4295755;33;20344;-82
2023/07/31 02:19:09;;;;;;;2.12;2.03;;;;;;;;;;4292940;33;20427;-83
2023/07/31 02:21:35;;;;;;;3.35;2.78;;;;;;;;;;4295194;33;20172;-80
2023/07/31 02:24:02;;;;;;;2.62;2.35;;;;;;;;;;4294951;33;20041;-81
2023/07/31 02:26:28;;;;;;;2.35;2.08;;;;;;;;;;4295720;33;20048;-82
2023/07/31 02:28:54;;;;;;;3.75;2.47;;;;;;;;;;4279926;33;20055;-82
2023/07/31 02:31:20;;;;;;;4.10;2.10;;;;;;;;;;4264164;33;20054;-80
2023/07/31 02:33:46;;;;;;;4.85;2.15;;;;;;;;;;4266519;33;20996;-83
2023/07/31 02:36:14;;;;;;;5.87;3.03;;;;;;;;;;4267516;33;20083;-84
2023/07/31 02:38:40;;;;;;;2.12;1.83;;;;;;;;;;4251484;33;20644;-83
2023/07/31 02:41:06;;;;;;;4.82;2.45;;;;;;;;;;4251697;33;20060;-82
2023/07/31 02:43:33;;;;;;;3.78;2.70;;;;;;;;;;4261371;33;20377;-83
2023/07/31 02:45:59;;;;;;;2.53;2.33;;;;;;;;;;4269720;33;20129;-81
2023/07/31 02:48:26;;;;;;;3.22;2.35;;;;;;;;;;4277857;33;20220;-81
2023/07/31 02:50:53;;;;;;;2.90;1.90;;;;;;;;;;4269472;33;20101;-82
2023/07/31 02:53:19;;;;;;;2.65;2.45;;;;;;;;;;4265935;33;20089;-82
2023/07/31 02:55:45;;;;;;;3.87;2.83;;;;;;;;;;4206890;34;20043;-82
2023/07/31 02:58:12;;;;;;;2.00;1.90;;;;;;;;;;4209690;34;20106;-84
2023/07/31 03:00:41;;;;;;;9.25;3.15;;;;;;;;;;4203527;34;20051;-84
2023/07/31 03:03:08;;;;;;;5.72;2.37;;;;;;;;;;4219910;34;20081;-85
2023/07/31 03:05:34;;;;;;;3.83;2.22;;;;;;;;;;4222811;34;20080;-84
2023/07/31 03:08:01;;;;;;;4.95;3.17;;;;;;;;;;4221418;33;20059;-81
2023/07/31 03:10:27;;;;;;;5.18;2.28;;;;;;;;;;4234890;33;20210;-83
2023/07/31 03:13:00;;;;;;;3.50;2.05;;;;;;;;;;4237804;33;20077;-84
2023/07/31 03:15:26;;;;;;;8.43;2.95;;;;;;;;;;4262841;33;20066;-84
2023/07/31 03:17:52;;;;;;;5.93;2.20;;;;;;;;;;4266400;33;20072;-83
2023/07/31 03:20:18;;;;;;;3.37;2.60;;;;;;;;;;4263178;33;20047;-81
2023/07/31 03:22:44;;;;;;;3.30;2.67;;;;;;;;;;4268694;33;20068;-88
2023/07/31 03:25:11;;;;;;;6.28;2.80;;;;;;;;;;4265111;33;20033;-83
2023/07/31 03:27:37;;;;;;;2.62;2.40;;;;;;;;;;4265401;33;20068;-82
2023/07/31 03:30:03;;;;;;;2.85;2.60;;;;;;;;;;4265062;33;20100;-81
2023/07/31 03:32:30;;;;;;;5.85;2.58;;;;;;;;;;4289098;33;20080;-81
2023/07/31 03:34:55;;;;;;;4.43;3.10;;;;;;;;;;4296872;33;20071;-82
2023/07/31 03:37:22;;;;;;;3.22;2.87;;;;;;;;;;4296624;33;20079;-80
2023/07/31 03:39:48;;;;;;;4.82;3.25;;;;;;;;;;4332553;33;20048;-82
2023/07/31 03:42:14;;;;;;;5.50;2.80;;;;;;;;;;4295275;33;20090;-81
2023/07/31 03:44:40;;;;;;;4.15;2.87;;;;;;;;;;4303642;33;20058;-81
2023/07/31 03:47:07;;;;;;;15.50;3.70;;;;;;;;;;4295953;33;20532;-81
2023/07/31 03:49:32;;;;;;;3.83;2.40;;;;;;;;;;4295045;33;20033;-81
2023/07/31 03:51:59;;;;;;;8.25;3.08;;;;;;;;;;4278991;33;20041;-80
2023/07/31 03:54:25;;;;;;;4.68;2.92;;;;;;;;;;4279988;33;20119;-80
2023/07/31 03:56:51;;;;;;;4.53;3.37;;;;;;;;;;4278123;33;20049;-80
2023/07/31 03:59:17;;;;;;;6.93;2.47;;;;;;;;;;4281412;33;20197;-80
2023/07/31 04:01:43;;;;;;;3.22;2.30;;;;;;;;;;4279138;33;20061;-83
2023/07/31 04:04:10;;;;;;;5.00;2.80;;;;;;;;;;4279187;33;20226;-80
2023/07/31 04:06:36;;;;;;;3.85;2.55;;;;;;;;;;4279812;33;20506;-80
2023/07/31 04:09:02;;;;;;;7.93;3.22;;;;;;;;;;4263409;33;20058;-82
2023/07/31 04:11:29;;;;;;;2.55;2.42;;;;;;;;;;4254968;33;20061;-83
2023/07/31 04:13:55;;;;;;;6.93;3.05;;;;;;;;;;4262311;33;20101;-82
2023/07/31 04:16:21;;;;;;;5.40;2.47;;;;;;;;;;4278077;33;20379;-80
2023/07/31 04:18:47;;;;;;;4.87;2.22;;;;;;;;;;4276269;33;20349;-80
2023/07/31 04:21:13;;;;;;;5.60;2.60;;;;;;;;;;4279191;33;20046;-82
2023/07/31 04:23:39;;;;;;;6.93;2.62;;;;;;;;;;4260200;33;20507;-82
2023/07/31 04:26:06;;;;;;;7.25;2.90;;;;;;;;;;4264928;33;20050;-83
2023/07/31 04:28:31;;;;;;;6.62;3.33;;;;;;;;;;4262799;33;20049;-80
2023/07/31 04:30:58;;;;;;;9.02;2.87;;;;;;;;;;4262701;33;20408;-81
2023/07/31 04:33:31;;;;;;;7.90;2.80;;;;;;;;;;4265360;33;20049;-82
2023/07/31 04:35:57;;;;;;;5.28;2.97;;;;;;;;;;4254234;33;20054;-80
2023/07/31 04:38:23;;;;;;;8.35;2.97;;;;;;;;;;4251684;33;20073;-81
2023/07/31 04:40:49;;;;;;;5.25;2.55;;;;;;;;;;4260162;33;20096;-79
2023/07/31 04:43:15;;;;;;;3.15;2.25;;;;;;;;;;4262909;33;20435;-83
2023/07/31 04:45:42;;;;;;;4.32;2.55;;;;;;;;;;4264547;33;20084;-79
2023/07/31 04:48:08;;;;;;;5.62;2.90;;;;;;;;;;4263099;33;20218;-83
2023/07/31 04:50:34;;;;;;;8.95;4.37;;;;;;;;;;4264693;33;20178;-81
2023/07/31 04:53:00;;;;;;;5.28;2.78;;;;;;;;;;4262754;33;20053;-81
2023/07/31 04:55:27;;;;;;;2.35;2.17;;;;;;;;;;4263967;33;20050;-81
2023/07/31 04:57:53;;;;;;;6.25;2.85;;;;;;;;;;4263866;33;20468;-80
2023/07/31 05:00:19;;;;;;;9.15;2.95;;;;;;;;;;4265021;33;20107;-82
2023/07/31 05:02:45;;;;;;;7.32;2.30;;;;;;;;;;4286322;33;20064;-81
2023/07/31 05:05:11;;;;;;;6.97;2.00;;;;;;;;;;4288458;33;20478;-80
2023/07/31 05:07:37;;;;;;;2.90;2.15;;;;;;;;;;4291600;33;20112;-82
2023/07/31 05:10:04;;;;;;;7.65;2.70;;;;;;;;;;4313362;33;20059;-82
2023/07/31 05:12:30;;;;;;;3.65;2.47;;;;;;;;;;4317071;33;20117;-82
2023/07/31 05:14:56;;;;;;;8.02;2.75;;;;;;;;;;4315593;33;20064;-81
2023/07/31 05:17:22;;;;;;;3.45;2.65;;;;;;;;;;4321562;33;20055;-79
2023/07/31 05:19:49;;;;;;;2.55;2.35;;;;;;;;;;4315198;33;20064;-86
2023/07/31 05:22:15;;;;;;;6.30;3.10;;;;;;;;;;4307048;33;20066;-86
2023/07/31 05:24:54;;;;;;;2.97;2.22;;;;;;;;;;4304636;33;20052;-85
2023/07/31 05:27:20;;;;;;;5.68;3.03;;;;;;;;;;4307806;33;20041;-86
2023/07/31 05:29:46;;;;;;;6.72;3.67;;;;;;;;;;4308762;33;20199;-86
2023/07/31 05:32:12;;;;;;;3.70;2.08;;;;;;;;;;4308206;33;20079;-85
2023/07/31 05:34:39;;;;;;;3.90;2.58;;;;;;;;;;4310442;33;20078;-85
2023/07/31 05:37:05;;;;;;;4.40;2.28;;;;;;;;;;4313527;33;20044;-81
2023/07/31 05:39:31;;;;;;;9.02;2.42;;;;;;;;;;4323864;33;20056;-87
2023/07/31 05:41:58;;;;;;;5.18;2.58;;;;;;;;;;4317868;33;20052;-86
2023/07/31 05:44:24;;;;;;;3.47;2.47;;;;;;;;;;4295186;33;20445;-82
2023/07/31 05:46:50;;;;;;;3.97;2.78;;;;;;;;;;4291322;33;20049;-81
2023/07/31 05:49:16;;;;;;;6.00;2.47;;;;;;;;;;4280036;33;20046;-82
2023/07/31 05:51:42;;;;;;;5.15;2.47;;;;;;;;;;4303836;33;20530;-82
2023/07/31 05:54:08;;;;;;;7.18;3.05;;;;;;;;;;4307319;33;20045;-83
2023/07/31 05:56:34;;;;;;;2.25;2.15;;;;;;;;;;4305989;33;20074;-84
2023/07/31 05:59:01;;;;;;;7.43;2.90;;;;;;;;;;4306864;33;20060;-84
2023/07/31 06:01:27;;;;;;;4.90;2.50;;;;;;;;;;4296587;33;20059;-84
2023/07/31 06:03:53;;;;;;;11.85;3.35;;;;;;;;;;4306409;33;20041;-85
2023/07/31 06:06:19;;;;;;;4.47;2.85;;;;;;;;;;4306917;33;20466;-84
2023/07/31 06:08:46;;;;;;;3.62;2.30;;;;;;;;;;4307334;33;20074;-84
2023/07/31 06:11:12;;;;;;;5.45;2.85;;;;;;;;;;4294805;33;20122;-84
2023/07/31 06:13:38;;;;;;;4.57;2.45;;;;;;;;;;4278812;33;20392;-82
2023/07/31 06:16:07;;;;;;;5.97;3.17;;;;;;;;;;4289537;33;20198;-83
2023/07/31 06:18:33;;;;;;;6.25;2.92;;;;;;;;;;4292845;33;20049;-85
2023/07/31 06:20:59;;;;;;;4.45;3.35;;;;;;;;;;4291957;33;20421;-82
2023/07/31 06:23:25;;;;;;;4.68;2.83;;;;;;;;;;4280294;33;20067;-83
2023/07/31 06:25:51;;;;;;;7.18;2.40;;;;;;;;;;4291786;33;20053;-88
2023/07/31 06:28:17;;;;;;;2.78;2.28;;;;;;;;;;4306382;33;20081;-84
2023/07/31 06:30:43;;;;;;;8.00;2.78;;;;;;;;;;4300787;33;20082;-82
2023/07/31 06:33:10;;;;;;;7.25;2.30;;;;;;;;;;4308825;33;20057;-82
2023/07/31 06:35:36;;;;;;;7.22;3.12;;;;;;;;;;4308932;33;20093;-84
2023/07/31 06:38:02;;;;;;;2.60;2.40;;;;;;;;;;4308812;33;20029;-81
2023/07/31 06:40:29;;;;;;;4.47;2.47;;;;;;;;;;4312239;33;20057;-81
2023/07/31 06:42:55;;;;;;;4.28;3.15;;;;;;;;;;4317448;33;20078;-83
2023/07/31 06:45:21;;;;;;;5.55;2.25;;;;;;;;;;4309723;33;20455;-82
2023/07/31 06:47:48;;;;;;;5.22;2.20;;;;;;;;;;4310966;33;20048;-81
2023/07/31 06:50:14;;;;;;;8.52;2.42;;;;;;;;;;4310660;33;20324;-82
2023/07/31 06:52:40;;;;;;;5.15;2.33;;;;;;;;;;4308629;33;20067;-83
2023/07/31 06:55:18;;;;;;;6.70;2.35;;;;;;;;;;4313630;33;20795;-83
2023/07/31 06:57:44;;;;;;;2.20;2.00;;;;;;;;;;4278461;33;20079;-84
2023/07/31 07:00:11;;;;;;;4.95;2.90;;;;;;;;;;4275521;33;20053;-81
2023/07/31 07:02:37;;;;;;;2.90;2.12;;;;;;;;;;4273975;33;20543;-83
2023/07/31 07:05:03;;;;;;;3.53;2.40;;;;;;;;;;4281758;33;20161;-85
2023/07/31 07:07:30;;;;;;;7.12;2.37;;;;;;;;;;4278523;33;20077;-85
2023/07/31 07:09:56;;;;;;;8.55;2.15;;;;;;;;;;4278426;33;20061;-85
2023/07/31 07:12:29;;;;;;;6.03;2.40;;;;;;;;;;4278644;33;20051;-83
2023/07/31 07:14:57;;;;;;;2.62;2.12;;;;;;;;;;4278159;33;20537;-81
2023/07/31 07:17:23;;;;;;;7.20;3.00;;;;;;;;;;4278394;33;20460;-85
2023/07/31 07:19:50;;;;;;;7.95;2.22;;;;;;;;;;4279281;33;20135;-85
2023/07/31 07:22:16;;;;;;;7.70;1.73;;;;;;;;;;4279991;33;20113;-84
2023/07/31 07:24:42;;;;;;;4.62;2.58;;;;;;;;;;4281509;33;20077;-82
2023/07/31 07:27:08;;;;;;;2.42;1.80;;;;;;;;;;4277430;33;20405;-83
2023/07/31 07:29:35;;;;;;;3.15;1.85;;;;;;;;;;4307292;33;20056;-82
2023/07/31 07:32:01;;;;;;;4.18;1.77;;;;;;;;;;4282552;33;20075;-84
2023/07/31 07:34:27;;;;;;;3.03;1.62;;;;;;;;;;4287898;33;20399;-82
2023/07/31 07:36:54;;;;;;;3.55;2.08;;;;;;;;;;4278166;33;20075;-84
2023/07/31 07:39:20;;;;;;;3.75;2.28;;;;;;;;;;4279481;33;20038;-85
2023/07/31 07:41:46;;;;;;;9.73;1.80;;;;;;;;;;4278810;33;20050;-84
2023/07/31 07:44:13;;;;;;;3.05;1.70;;;;;;;;;;4278238;33;20060;-83
2023/07/31 07:46:39;;;;;;;2.62;1.98;;;;;;;;;;4287873;33;20037;-81
2023/07/31 07:49:05;;;;;;;4.82;2.72;;;;;;;;;;4279106;33;20063;-84
2023/07/31 07:51:31;;;;;;;9.10;2.70;;;;;;;;;;4272606;33;21885;-81
2023/07/31 07:53:58;;;;;;;5.70;2.15;;;;;;;;;;4263516;33;20072;-83
2023/07/31 07:56:25;;;;;;;3.58;1.87;;;;;;;;;;4272590;33;20064;-84
2023/07/31 07:58:52;;;;;;;5.40;1.75;;;;;;;;;;4262224;33;20046;-81
2023/07/31 08:01:18;;;;;;;2.65;1.62;;;;;;;;;;4262651;33;20054;-82
2023/07/31 08:03:44;;;;;;;1.52;1.40;;;;;;;;;;4250015;33;20117;-85
2023/07/31 08:06:10;;;;;;;2.78;1.25;;;;;;;;;;4246501;33;20444;-84
2023/07/31 08:08:37;;;;;;;2.78;1.73;;;;;;;;;;4249472;33;20057;-78
2023/07/31 08:11:03;;;;;;;3.90;1.55;;;;;;;;;;4248131;33;20076;-79
2023/07/31 08:13:36;;;;;;;1.92;1.65;;;;;;;;;;4249269;33;20054;-79
2023/07/31 08:16:03;;;;;;;3.83;1.40;;;;;;;;;;4260324;33;20045;-78
2023/07/31 08:18:30;;;;;;;5.25;1.50;;;;;;;;;;4264330;33;20473;-77
2023/07/31 08:20:56;;;;;;;4.97;1.90;;;;;;;;;;4262555;33;20046;-77
2023/07/31 08:23:22;;;;;;;2.45;1.60;;;;;;;;;;4264589;33;20103;-78
2023/07/31 08:25:50;;;;;;;2.95;1.50;;;;;;;;;;4248558;33;20038;-78
2023/07/31 08:28:16;;;;;;;7.93;1.58;;;;;;;;;;4250207;33;20046;-76
2023/07/31 08:30:42;;;;;;;2.05;1.40;;;;;;;;;;4247507;33;20323;-78
2023/07/31 08:33:09;;;;;;;2.35;2.17;;;;;;;;;;4249066;33;20050;-79
2023/07/31 08:35:34;;;;;;;2.75;1.62;;;;;;;;;;4259593;33;20456;-79
2023/07/31 08:38:01;;;;;;;6.50;1.35;;;;;;;;;;4259926;33;20054;-78
2023/07/31 08:40:28;;;;;;;3.90;1.92;;;;;;;;;;4261036;33;20053;-79
2023/07/31 08:42:56;;;;;;;1.75;1.27;;;;;;;;;;4261236;33;20050;-79
2023/07/31 08:45:22;;;;;;;4.40;1.55;;;;;;;;;;4260490;33;20080;-79
2023/07/31 08:47:50;;;;;;;3.47;1.42;;;;;;;;;;4271258;33;20470;-79
2023/07/31 08:50:17;;;;;;;8.73;1.80;;;;;;;;;;4273500;33;20411;-78
2023/07/31 08:52:43;;;;;;;2.70;1.90;;;;;;;;;;4272910;33;20726;-78
2023/07/31 08:55:09;;;;;;;2.92;1.30;;;;;;;;;;4296395;33;20106;-77
2023/07/31 08:57:37;;;;;;;3.85;1.40;;;;;;;;;;4312139;33;20700;-78
2023/07/31 09:00:03;;;;;;;5.82;1.98;;;;;;;;;;4312356;33;20041;-79
2023/07/31 09:02:34;;;;;;;5.55;1.92;;;;;;;;;;4310384;33;20075;-78
2023/07/31 09:05:01;;;;;;;2.42;1.33;;;;;;;;;;4313347;33;20076;-79
2023/07/31 09:07:27;;;;;;;1.55;1.45;;;;;;;;;;4313753;33;20055;-79
2023/07/31 09:09:54;;;;;;;2.22;1.52;;;;;;;;;;4309845;33;20074;-78
2023/07/31 09:12:20;;;;;;;4.15;1.70;;;;;;;;;;4313136;33;20081;-78
2023/07/31 09:14:47;;;;;;;3.62;1.62;;;;;;;;;;4288398;33;20017;-78
2023/07/31 09:17:13;;;;;;;8.80;1.90;;;;;;;;;;4301307;33;20056;-80
2023/07/31 09:19:39;;;;;;;5.30;1.75;;;;;;;;;;4296642;33;20143;-78
2023/07/31 09:22:06;;;;;;;6.07;1.67;;;;;;;;;;4295958;33;20048;-77
2023/07/31 09:24:33;;;;;;;5.47;2.05;;;;;;;;;;4298814;33;20049;-78
2023/07/31 09:27:00;;;;;;;8.98;1.98;;;;;;;;;;4261726;33;20474;-78
2023/07/31 09:29:27;;;;;;;6.80;2.25;;;;;;;;;;4260548;33;20055;-76
2023/07/31 09:31:54;;;;;;;4.60;1.50;;;;;;;;;;4262282;33;20133;-76
2023/07/31 09:34:27;;;;;;;6.95;1.70;;;;;;;;;;4263876;33;20053;-78
2023/07/31 09:36:54;;;;;;;3.42;1.70;;;;;;;;;;4266291;33;20057;-80
2023/07/31 09:39:20;;;;;;;4.37;1.20;;;;;;;;;;4260430;33;20085;-80
2023/07/31 09:41:53;;;;;;;5.20;1.98;;;;;;;;;;4262809;33;20058;-79
2023/07/31 09:44:21;;;;;;;3.92;1.45;;;;;;;;;;4261740;33;20068;-85
2023/07/31 09:46:47;;;;;;;2.33;2.05;;;;;;;;;;4264505;33;20063;-76
2023/07/31 09:49:14;;;;;;;2.75;1.80;;;;;;;;;;4269871;33;20075;-77
2023/07/31 09:51:42;;;;;;;15.73;2.00;;;;;;;;;;4269768;33;20054;-75
2023/07/31 09:54:15;;;;;;;5.40;1.55;;;;;;;;;;4276645;33;20115;-76
2023/07/31 09:56:45;;;;;;;11.93;2.28;;;;;;;;;;4276137;33;20045;-82
2023/07/31 09:59:13;;;;;;;3.83;1.85;;;;;;;;;;4275336;33;20083;-79
2023/07/31 10:01:40;;;;;;;3.78;1.40;;;;;;;;;;4304552;33;20340;-79
2023/07/31 10:04:07;;;;;;;3.62;1.90;;;;;;;;;;4291713;33;20053;-79
2023/07/31 10:06:35;;;;;;;6.85;1.80;;;;;;;;;;4296608;33;20167;-80
2023/07/31 10:09:01;;;;;;;1.35;1.20;;;;;;;;;;4290667;33;20034;-79
2023/07/31 10:11:30;;;;;;;4.43;1.92;;;;;;;;;;4292146;33;20053;-82
2023/07/31 10:13:56;;;;;;;10.25;1.77;;;;;;;;;;4293613;33;20028;-82
2023/07/31 10:16:22;;;;;;;3.50;1.70;;;;;;;;;;4300477;33;20250;-80
2023/07/31 10:18:49;;;;;;;4.62;1.52;;;;;;;;;;4304328;33;20471;-82
2023/07/31 10:21:15;;;;;;;2.70;1.45;;;;;;;;;;4295411;33;20077;-79
2023/07/31 10:23:42;;;;;;;3.28;1.80;;;;;;;;;;4297552;33;20378;-78
2023/07/31 10:26:09;;;;;;;4.80;2.45;;;;;;;;;;4292396;33;20209;-78
2023/07/31 10:28:36;;;;;;;7.65;1.55;;;;;;;;;;4297191;33;20037;-78
2023/07/31 10:31:03;;;;;;;5.35;1.52;;;;;;;;;;4294909;33;20049;-79
2023/07/31 10:33:29;;;;;;;3.22;1.35;;;;;;;;;;4294214;33;20110;-78
2023/07/31 10:36:12;;;;;;;4.05;1.33;;;;;;;;;;4280003;33;20049;-80
2023/07/31 10:38:38;;;;;;;2.83;1.30;;;;;;;;;;4270780;33;20081;-78
2023/07/31 10:41:10;;;;;;;4.15;1.87;;;;;;;;;;4278737;33;20038;-79
2023/07/31 10:43:37;;;;;;;8.05;2.75;;;;;;;;;;4304125;33;20037;-78
2023/07/31 10:46:08;;;;;;;3.28;1.62;;;;;;;;;;4311774;33;20504;-79
2023/07/31 10:48:34;;;;;;;3.17;1.75;;;;;;;;;;4310826;33;20070;-79
2023/07/31 10:51:04;;;;;;;2.70;1.55;;;;;;;;;;4311187;33;20390;-78
2023/07/31 10:53:31;;;;;;;10.85;2.53;;;;;;;;;;4311676;33;20044;-78
2023/07/31 10:55:58;;;;;;;5.87;1.48;;;;;;;;;;4310178;33;20044;-79
2023/07/31 10:58:24;;;;;;;3.50;1.60;;;;;;;;;;4310742;33;20079;-79
2023/07/31 11:03:25;;;;;;;4.55;1.73;;;;;;;;;;4276091;33;20356;-78
2023/07/31 11:05:58;;;;;;;3.75;1.40;;;;;;;;;;4283958;33;20252;-79
2023/07/31 11:08:25;;;;;;;1.50;1.40;;;;;;;;;;4281384;33;20415;-78
2023/07/31 11:11:04;;;;;;;5.30;1.55;;;;;;;;;;4280246;33;20114;-79
2023/07/31 11:13:31;;;;;;;5.45;1.67;;;;;;;;;;4279906;33;20570;-80
2023/07/31 11:15:57;;;;;;;3.03;1.75;;;;;;;;;;4281391;33;20053;-79
2023/07/31 11:18:23;;;;;;;12.48;1.62;;;;;;;;;;4283029;33;20141;-78
2023/07/31 11:20:50;;;;;;;2.70;1.40;;;;;;;;;;4282107;33;20464;-78
2023/07/31 11:23:16;;;;;;;6.35;1.20;;;;;;;;;;4280095;33;20049;-78
2023/07/31 11:25:43;;;;;;;3.70;1.40;;;;;;;;;;4279395;33;20083;-78
2023/07/31 11:28:11;;;;;;;3.03;1.35;;;;;;;;;;4287786;33;20070;-79
2023/07/31 11:30:38;;;;;;;6.25;1.42;;;;;;;;;;4291957;33;20060;-79
2023/07/31 11:33:04;;;;;;;2.50;1.33;;;;;;;;;;4297986;33;20037;-79
2023/07/31 11:35:43;;;;;;;9.27;1.58;;;;;;;;;;4289074;33;20088;-79
2023/07/31 11:38:09;;;;;;;5.87;1.20;;;;;;;;;;4293412;33;20075;-79
2023/07/31 11:40:42;;;;;;;6.62;1.65;;;;;;;;;;4292304;33;20120;-80
2023/07/31 11:43:08;;;;;;;1.52;1.10;;;;;;;;;;4291674;33;20037;-77
2023/07/31 11:45:35;;;;;;;3.58;1.52;;;;;;;;;;4290362;33;20053;-77
2023/07/31 11:48:01;;;;;;;1.70;1.30;;;;;;;;;;4292746;33;20156;-80
2023/07/31 11:50:27;;;;;;;5.15;1.50;;;;;;;;;;4275468;33;20057;-81
2023/07/31 11:52:57;;;;;;;4.15;2.00;;;;;;;;;;4272641;33;20387;-83
2023/07/31 11:55:23;;;;;;;4.18;1.80;;;;;;;;;;4266365;33;20054;-80
2023/07/31 11:57:50;;;;;;;2.12;1.83;;;;;;;;;;4251860;33;20067;-80
2023/07/31 12:00:17;;;;;;;3.95;1.80;;;;;;;;;;4257066;33;20071;-82
2023/07/31 12:02:43;;;;;;;6.03;2.22;;;;;;;;;;4263318;33;20046;-81
2023/07/31 12:05:13;;;;;;;2.22;1.95;;;;;;;;;;4209566;33;20043;-81
2023/07/31 12:07:47;;;;;;;3.95;1.52;;;;;;;;;;4218253;34;20425;-80
2023/07/31 12:10:30;;;;;;;9.02;2.75;;;;;;;;;;4220638;33;20076;-78
2023/07/31 12:12:55;;;;;;;;;;;;;;;;;;4228576;33;20043;-78
2023/07/31 12:15:22;;;;;;;2.90;1.37;;;;;;;;;;4234751;33;19947;-78
2023/07/31 12:17:48;;;;;;;6.97;1.30;;;;;;;;;;4228924;33;20055;-77
2023/07/31 12:20:14;;;;;;;7.03;1.35;;;;;;;;;;4234226;33;20437;-78
2023/07/31 12:22:41;;;;;;;5.62;1.65;;;;;;;;;;4246441;33;20037;-79
2023/07/31 12:25:14;;;;;;;4.10;1.85;;;;;;;;;;4242520;33;20046;-78
2023/07/31 12:27:44;;;;;;;4.60;1.77;;;;;;;;;;4254856;33;20090;-77
2023/07/31 12:30:29;;;;;;;1.95;1.48;;;;;;;;;;4275856;33;20041;-78
2023/07/31 12:32:56;;;;;;;6.15;1.52;;;;;;;;;;4278964;33;20123;-77
2023/07/31 12:35:22;;;;;;;2.05;1.45;;;;;;;;;;4276980;33;20094;-78
2023/07/31 12:37:48;;;;;;;10.32;1.30;;;;;;;;;;4290769;33;20037;-78
2023/07/31 12:40:14;;;;;;;5.00;1.95;;;;;;;;;;4290691;33;20106;-76
2023/07/31 12:42:43;;;;;;;3.03;1.25;;;;;;;;;;4292612;33;20037;-78
2023/07/31 12:45:09;;;;;;;5.07;1.45;;;;;;;;;;4264132;33;20084;-78
2023/07/31 12:47:35;;;;;;;9.75;1.50;;;;;;;;;;4263149;33;20057;-80
2023/07/31 12:50:02;;;;;;;4.25;1.33;;;;;;;;;;4263894;33;20049;-82
2023/07/31 12:52:27;;;;;;;2.03;1.70;;;;;;;;;;4269383;33;20172;-77
2023/07/31 12:54:54;;;;;;;3.55;2.20;;;;;;;;;;4264358;33;20120;-77
2023/07/31 12:57:21;;;;;;;1.87;1.15;;;;;;;;;;4260532;33;20022;-77
2023/07/31 12:59:47;;;;;;;5.05;1.80;;;;;;;;;;4290064;33;20837;-77
2023/07/31 13:02:13;;;;;;;2.70;1.30;;;;;;;;;;4304211;33;20063;-78
2023/07/31 13:04:39;;;;;;;3.33;1.17;;;;;;;;;;4299760;33;20488;-78
2023/07/31 13:07:05;;;;;;;3.03;1.30;;;;;;;;;;4305633;33;20087;-77
2023/07/31 13:09:32;;;;;;;4.25;2.75;;;;;;;;;;4304218;33;20048;-78
2023/07/31 13:11:58;;;;;;;2.55;1.27;;;;;;;;;;4304256;33;20900;-78
2023/07/31 13:14:24;;;;;;;1.60;1.37;;;;;;;;;;4301971;33;20048;-79
2023/07/31 13:16:50;;;;;;;2.47;1.35;;;;;;;;;;4303962;33;20084;-79
2023/07/31 13:19:16;;;;;;;5.12;2.33;;;;;;;;;;4302806;33;20048;-76
2023/07/31 13:21:42;;;;;;;4.55;1.40;;;;;;;;;;4299675;33;20163;-80
2023/07/31 13:24:09;;;;;;;3.37;2.03;;;;;;;;;;4304962;33;20075;-79
2023/07/31 13:26:35;;;;;;;7.00;1.77;;;;;;;;;;4301698;33;20526;-78
2023/07/31 13:29:02;;;;;;;6.70;1.67;;;;;;;;;;4292826;33;20128;-79
2023/07/31 13:31:28;;;;;;;4.43;1.30;;;;;;;;;;4288489;33;20044;-80
2023/07/31 13:33:54;;;;;;;5.87;1.50;;;;;;;;;;4293592;33;20053;-81
2023/07/31 13:36:20;;;;;;;3.67;1.67;;;;;;;;;;4290648;33;20386;-81
2023/07/31 13:38:46;;;;;;;3.92;1.08;;;;;;;;;;4287959;33;20126;-82
2023/07/31 13:41:12;;;;;;;5.07;1.40;;;;;;;;;;4291168;33;20344;-82
2023/07/31 13:43:39;;;;;;;4.62;1.70;;;;;;;;;;4298747;33;20053;-80
2023/07/31 13:46:07;;;;;;;4.05;1.40;;;;;;;;;;4291836;33;20090;-79
2023/07/31 13:48:34;;;;;;;9.95;1.87;;;;;;;;;;4299318;33;20057;-79
2023/07/31 13:51:00;;;;;;;2.72;1.23;;;;;;;;;;4288794;33;20655;-79
2023/07/31 13:53:27;;;;;;;1.95;1.27;;;;;;;;;;4289734;33;20049;-79
2023/07/31 13:55:53;;;;;;;4.57;1.50;;;;;;;;;;4290741;33;20108;-78
2023/07/31 13:58:20;;;;;;;3.80;1.27;;;;;;;;;;4289827;33;20079;-78
2023/07/31 14:00:46;;;;;;;5.62;1.37;;;;;;;;;;4300302;33;20063;-77
2023/07/31 14:03:12;;;;;;;4.80;1.70;;;;;;;;;;4285286;33;20456;-77
2023/07/31 14:05:38;;;;;;;4.50;1.37;;;;;;;;;;4283312;33;20049;-78
2023/07/31 14:08:04;;;;;;;1.60;1.35;;;;;;;;;;4283997;33;20090;-79
2023/07/31 14:10:31;;;;;;;8.75;2.22;;;;;;;;;;4284548;33;20092;-80
2023/07/31 14:12:57;;;;;;;8.75;1.83;;;;;;;;;;4289007;33;20412;-79
2023/07/31 14:15:23;;;;;;;5.62;1.33;;;;;;;;;;4283330;33;20072;-80
2023/07/31 14:17:49;;;;;;;4.85;2.10;;;;;;;;;;4272868;33;20214;-80
2023/07/31 14:20:15;;;;;;;2.85;1.95;;;;;;;;;;4269977;33;20489;-81
2023/07/31 14:22:41;;;;;;;3.70;1.60;;;;;;;;;;4277105;33;20065;-80
2023/07/31 14:25:10;;;;;;;3.25;1.90;;;;;;;;;;4275008;33;20038;-81
2023/07/31 14:27:36;;;;;;;4.15;1.30;;;;;;;;;;4249474;33;20415;-80
2023/07/31 14:30:02;;;;;;;9.88;1.73;;;;;;;;;;4240815;33;20128;-81
2023/07/31 14:32:29;;;;;;;3.92;1.37;;;;;;;;;;4242252;33;20065;-81
2023/07/31 14:34:55;;;;;;;4.72;1.60;;;;;;;;;;4237752;33;20054;-84
2023/07/31 14:37:21;;;;;;;3.20;1.25;;;;;;;;;;4238860;33;20480;-84
2023/07/31 14:39:47;;;;;;;9.40;1.60;;;;;;;;;;4240694;33;20596;-82
2023/07/31 14:42:18;;;;;;;6.45;1.50;;;;;;;;;;4240695;33;20047;-80
2023/07/31 14:44:44;;;;;;;4.60;1.20;;;;;;;;;;4239718;33;20046;-82
2023/07/31 14:47:10;;;;;;;2.28;1.73;;;;;;;;;;4237414;33;20108;-84
2023/07/31 14:49:36;;;;;;;2.33;1.75;;;;;;;;;;4223638;33;20373;-82
2023/07/31 14:52:03;;;;;;;7.37;1.42;;;;;;;;;;4221188;34;20071;-82
2023/07/31 14:54:29;;;;;;;8.20;1.83;;;;;;;;;;4217295;33;20437;-83
2023/07/31 14:56:55;;;;;;;3.95;1.62;;;;;;;;;;4209214;34;20086;-79
2023/07/31 14:59:21;;;;;;;3.25;1.80;;;;;;;;;;4218053;33;20094;-81
2023/07/31 15:01:48;;;;;;;4.53;1.60;;;;;;;;;;4239112;33;20072;-80
2023/07/31 15:04:14;;;;;;;3.70;1.40;;;;;;;;;;4237649;33;20050;-81
2023/07/31 15:06:40;;;;;;;3.62;1.48;;;;;;;;;;4241517;33;20050;-81
2023/07/31 15:09:07;;;;;;;3.30;1.15;;;;;;;;;;4254986;33;20436;-79
2023/07/31 15:11:33;;;;;;;1.85;1.55;;;;;;;;;;4262150;33;20196;-80
2023/07/31 15:13:59;;;;;;;1.70;1.23;;;;;;;;;;4256875;33;20050;-79
2023/07/31 15:16:26;;;;;;;4.10;1.50;;;;;;;;;;4263553;33;20045;-80
2023/07/31 15:18:51;;;;;;;1.50;1.40;;;;;;;;;;4241134;33;20569;-81
2023/07/31 15:21:18;;;;;;;5.28;1.62;;;;;;;;;;4209545;33;20059;-81
2023/07/31 15:23:50;;;;;;;4.95;1.70;;;;;;;;;;4208612;34;20170;-80
2023/07/31 15:26:16;;;;;;;5.80;1.40;;;;;;;;;;4207459;34;20051;-81
2023/07/31 15:28:46;;;;;;;6.40;1.48;;;;;;;;;;4204230;34;20569;-82
2023/07/31 15:31:13;;;;;;;2.60;1.45;;;;;;;;;;4205050;34;20555;-81
2023/07/31 15:33:38;;;;;;;3.75;1.30;;;;;;;;;;4208713;34;20377;-81
2023/07/31 15:36:05;;;;;;;3.25;1.40;;;;;;;;;;4209608;34;20048;-80
2023/07/31 15:38:31;;;;;;;2.47;1.40;;;;;;;;;;4208005;34;20090;-81
2023/07/31 15:40:58;;;;;;;6.30;1.30;;;;;;;;;;4209534;34;20055;-84
2023/07/31 15:43:23;;;;;;;2.72;1.60;;;;;;;;;;4206722;34;20482;-82
2023/07/31 15:45:50;;;;;;;1.52;1.42;;;;;;;;;;4221481;33;20080;-80
2023/07/31 15:48:16;;;;;;;3.60;1.67;;;;;;;;;;4229152;33;20046;-83
2023/07/31 15:50:42;;;;;;;1.33;1.20;;;;;;;;;;4245473;33;20127;-83
2023/07/31 15:53:08;;;;;;;11.57;1.40;;;;;;;;;;4273106;33;20046;-84
2023/07/31 15:55:35;;;;;;;5.00;1.35;;;;;;;;;;4273153;33;20075;-84
2023/07/31 15:58:00;;;;;;;4.45;1.77;;;;;;;;;;4263151;33;20261;-84
2023/07/31 16:00:27;;;;;;;9.38;1.30;;;;;;;;;;4267586;33;20053;-86
2023/07/31 16:02:53;;;;;;;2.83;1.42;;;;;;;;;;4270243;33;20466;-82
2023/07/31 16:05:20;;;;;;;1.75;1.20;;;;;;;;;;4263415;33;20581;-84
2023/07/31 16:07:45;;;;;;;4.43;1.87;;;;;;;;;;4262936;33;20041;-82
2023/07/31 16:10:12;;;;;;;4.10;1.52;;;;;;;;;;4260944;33;20068;-80
2023/07/31 16:12:44;;;;;;;2.75;1.50;;;;;;;;;;4264935;33;20054;-81
2023/07/31 16:15:10;;;;;;;3.05;1.60;;;;;;;;;;4264845;33;20038;-81
2023/07/31 16:17:36;;;;;;;1.67;1.40;;;;;;;;;;4261884;33;20067;-84
2023/07/31 16:20:03;;;;;;;1.55;1.45;;;;;;;;;;4270032;33;20073;-85
2023/07/31 16:22:29;;;;;;;3.03;1.60;;;;;;;;;;4266106;33;20053;-81
2023/07/31 16:24:56;;;;;;;5.18;1.42;;;;;;;;;;4265152;33;20065;-88
2023/07/31 16:27:24;;;;;;;5.93;1.52;;;;;;;;;;4274152;33;20065;-83
2023/07/31 16:29:50;;;;;;;2.65;1.15;;;;;;;;;;4263598;33;20255;-78
2023/07/31 16:32:16;;;;;;;1.77;1.67;;;;;;;;;;4263121;33;20991;-82
2023/07/31 16:34:42;;;;;;;4.43;1.75;;;;;;;;;;4264064;33;20042;-79
2023/07/31 16:37:09;;;;;;;1.83;1.52;;;;;;;;;;4263522;33;20432;-81
2023/07/31 16:39:36;;;;;;;1.62;1.45;;;;;;;;;;4267195;33;20421;-81
2023/07/31 16:42:02;;;;;;;2.03;1.37;;;;;;;;;;4262996;33;20088;-81
2023/07/31 16:44:35;;;;;;;3.85;1.67;;;;;;;;;;4276845;33;20060;-81